x

Mt Desert Rock, Me (mdrm1) Weather Station

5:00 - Wed 10th Feb 2016 All times are EST. -5 hours from GMT.

  • Wind
    10mph, 14mph gusts
  • Luft Temp 26°f
  • Sea Pressure 1001.9mb
  • Mt Desert Rock, Me
  • Mt Desert Rock, Me

More Historic Weather Station data

Upgrade to MSW Pro to gain access to the past 30 days of data for over 8000 Wavebouys and Weather Stations around the globe.

Join Pro

Comparision Forecast

View Surf forecast
   
Mi 02/10 5:00 10 14 mph 1001.9mb 26f
4:00 7 10 mph 1001.8mb 26f
3:00 13 15 mph 1002.1mb 26f
2:00 11 15 mph 1001.9mb 26f
1:00 11 14 mph 1001.4mb 25f
12:00 13 15 mph 1001.6mb 26f
Di 02/09 11:00 10 16 mph 1001.3mb 26f
10:00 13 15 mph 1000.9mb 26f
9:00 14 16 mph 1000.9mb 27f
8:00 11 14 mph 1001.3mb 27f
7:00 14
mph
1001.6mb 27f
6:00 15 17 mph 1001.8mb 28f
5:00 14 16 mph 1001.3mb 28f
4:00 16 20 mph 1001mb 27f
3:00 16 20 mph 1001.1mb 26f
2:00 14 16 mph 1001.7mb 26f
1:00 10 13 mph 1003.5mb 26f
12:00 11 14 mph 1003.9mb 25f
11:00 15 16 mph 1004.5mb 25f
10:00 14 17 mph 1005.5mb 25f
9:00 22 25 mph 1004.4mb 24f
8:00 18 22 mph 1005mb 24f
7:00 22 25 mph 1004.9mb 26f
6:00 29 32 mph 1004.3mb 25f
5:00 30 33 mph 1004.7mb 23f
4:00 33 37 mph 1004.9mb 23f
3:00 33 37 mph 1005.2mb 23f
2:00 33 38 mph 1005.5mb 22f
1:00 38 46 mph 1004.7mb 23f
12:00 39 44 mph 1004.8mb 23f
Mo 02/08 11:00 34 39 mph 1005.2mb 24f
10:00 38 43 mph 1004.6mb 23f
9:00 38 44 mph 1004.8mb 24f
8:00 39 43 mph 1004.5mb 25f
7:00 43 48 mph 1003.8mb 26f
6:00 44 49 mph 1004mb 25f
5:00 48 53 mph 1004.1mb 24f
4:00 46 52 mph 1004.9mb 25f
3:00 46 51 mph 1006mb 24f
2:00 45 51 mph 1006.6mb 25f
1:00 41 47 mph 1008.2mb 25f
12:00 40 46 mph 1009.3mb 24f
11:00 41 47 mph 1010.4mb 24f
10:00 43 48 mph 1010mb 29f
9:00 45 49 mph 1011.7mb 29f
8:00 43 49 mph 1012.9mb 29f
7:00 46 53 mph 1013.3mb 29f
6:00 44 53 mph 1014.5mb 27f
5:00 44 49 mph 1015.9mb 26f
4:00 39 43 mph 1017.4mb 25f
3:00 41 47 mph 1018.1mb 26f
2:00 37 43 mph 1019.6mb 26f
1:00 33 37 mph 1020.7mb 28f
12:00 36 40 mph 1020.6mb 28f
So 02/07 11:00 36 39 mph 1021.6mb 29f
10:00 31 33 mph 1022.7mb 32f
9:00 28 30 mph 1023.1mb 32f
8:00 25 26 mph 1022.8mb 34f
7:00 18 21 mph 1022.3mb 37f
6:00 17 18 mph 1022mb 37f
5:00 17 20 mph 1021.1mb 37f
4:00 14 15 mph 1021.5mb 37f
3:00 11 14 mph 1021.8mb 38f
2:00 15 16 mph 1020.9mb 39f
1:00 17 21 mph 1020.7mb 39f
12:00 17 18 mph 1019.5mb 38f
11:00 18 20 mph 1020.2mb 38f
10:00 20 21 mph 1020mb 38f
9:00 22 24 mph 1019.5mb 38f
8:00 29 31 mph 1019.4mb 39f
7:00 29 32 mph 1018.6mb 40f
6:00 30 33 mph 1018mb 40f
5:00 29 30 mph 1018.1mb 40f
4:00 26 31 mph 1018mb 40f
3:00 28 30 mph 1018.5mb 40f
2:00 31 33 mph 1019.2mb 40f
1:00 31 32 mph 1019.8mb 39f
12:00 29 30 mph 1020.7mb 39f
Sa 02/06 11:00 28 31 mph 1021.4mb 38f
10:00 31 33 mph 1021.9mb 39f
9:00 31 33 mph 1022.2mb 38f
8:00 30 33 mph 1022.7mb 38f
7:00 31 34 mph 1022.9mb 38f
6:00 33 36 mph 1023.1mb 37f
5:00 30 32 mph 1023mb 37f
4:00 28 30 mph 1023.3mb 37f
3:00 25 29 mph 1023.7mb 36f
2:00 25 28 mph 1023.9mb 35f
1:00 24 26 mph 1024.4mb 34f
12:00 16 18 mph 1024.9mb 34f